Time;durP1;ratioP1;P1;durP2;ratioP2;P2;SDS_P1;SDS_P2;PMS_P1;PMS_P2;Temp;Humidity;BMP_temperature;BMP_pressure;BME280_temperature;BME280_humidity;BME280_pressure;Samples;Min_cycle;Max_cycle;Signal;HPM_P1;HPM_P2
2023/07/29 00:00:33;;;;;;;1.80;1.25;;;;;15.80;93783.00;;;;7400295;19;20248;-73
2023/07/29 00:03:01;;;;;;;3.38;1.50;;;;;15.90;93775.00;;;;7401741;19;20711;-73
2023/07/29 00:05:36;;;;;;;1.73;1.42;;;;;15.90;93777.00;;;;7401209;19;20135;-74
2023/07/29 00:08:07;;;;;;;1.70;1.30;;;;;16.00;93778.00;;;;7399017;19;20153;-75
2023/07/29 00:10:42;;;;;;;1.30;1.20;;;;;16.00;93769.00;;;;7399086;19;20206;-74
2023/07/29 00:13:10;;;;;;;1.33;1.20;;;;;16.00;93768.00;;;;7400893;19;21010;-73
2023/07/29 00:15:49;;;;;;;2.33;1.35;;;;;15.90;93770.00;;;;7398119;19;20249;-74
2023/07/29 00:18:27;;;;;;;2.45;1.20;;;;;15.90;93770.00;;;;7399155;19;20252;-80
2023/07/29 00:20:55;;;;;;;1.83;1.30;;;;;15.90;93782.00;;;;7402140;19;20140;-80
2023/07/29 00:23:29;;;;;;;1.42;1.30;;;;;15.80;93772.00;;;;7402392;19;20136;-78
2023/07/29 00:25:57;;;;;;;2.85;1.35;;;;;15.80;93766.00;;;;7398898;19;20149;-80
2023/07/29 00:28:33;;;;;;;2.95;1.40;;;;;15.70;93761.00;;;;7400187;19;20156;-79
2023/07/29 00:31:02;;;;;;;3.17;1.13;;;;;15.70;93764.00;;;;7400217;19;20148;-80
2023/07/29 00:33:42;;;;;;;4.10;1.25;;;;;15.50;93768.00;;;;7396943;19;20160;-81
2023/07/29 00:36:20;;;;;;;5.07;1.30;;;;;15.50;93772.00;;;;7397479;19;20151;-80
2023/07/29 00:38:57;;;;;;;4.00;1.33;;;;;15.50;93775.00;;;;7400811;19;20523;-81
2023/07/29 00:41:33;;;;;;;3.53;1.13;;;;;15.50;93764.00;;;;7398730;19;20147;-80
2023/07/29 00:44:01;;;;;;;4.43;1.25;;;;;15.50;93770.00;;;;7401026;19;20145;-80
2023/07/29 00:46:35;;;;;;;3.53;1.63;;;;;15.50;93767.00;;;;7401104;19;20150;-79
2023/07/29 00:49:11;;;;;;;1.50;1.40;;;;;15.50;93759.00;;;;7403123;19;20148;-80
2023/07/29 00:51:45;;;;;;;1.60;1.50;;;;;15.50;93758.00;;;;7408917;19;20148;-79
2023/07/29 00:54:19;;;;;;;4.72;1.52;;;;;15.50;93758.00;;;;7399821;19;20211;-80
2023/07/29 00:56:47;;;;;;;7.70;1.50;;;;;15.40;93756.00;;;;7398471;19;20141;-79
2023/07/29 00:59:25;;;;;;;4.32;1.50;;;;;15.40;93751.00;;;;7397933;19;20157;-83
2023/07/29 01:02:14;;;;;;;1.50;1.40;;;;;15.30;93752.00;;;;7398577;19;20141;-75
2023/07/29 01:05:06;;;;;;;4.80;1.50;;;;;15.30;93753.00;;;;7395879;19;20160;-83
2023/07/29 01:07:54;;;;;;;4.03;1.75;;;;;15.30;93744.00;;;;7401076;19;20476;-83
2023/07/29 01:10:54;;;;;;;3.55;1.30;;;;;15.30;93740.00;;;;7399737;19;20140;-83
2023/07/29 01:13:37;;;;;;;1.85;1.27;;;;;15.20;93744.00;;;;7401056;19;20166;-83
2023/07/29 01:16:43;;;;;;;4.35;1.30;;;;;15.20;93739.00;;;;7394810;19;20151;-83
2023/07/29 01:19:39;;;;;;;3.75;1.38;;;;;15.20;93735.00;;;;7398072;19;20149;-83
2023/07/29 01:22:15;;;;;;;2.47;1.45;;;;;15.20;93738.00;;;;7402523;19;20149;-83
2023/07/29 01:24:43;;;;;;;1.35;1.25;;;;;15.40;93737.00;;;;7399884;19;20144;-82
2023/07/29 01:27:24;;;;;;;1.55;1.40;;;;;15.50;93736.00;;;;7401840;19;20529;-83
2023/07/29 01:29:55;;;;;;;3.63;1.42;;;;;15.60;93728.00;;;;7400878;19;20144;-83
2023/07/29 01:32:55;;;;;;;2.22;1.30;;;;;15.80;93726.00;;;;7400020;19;20148;-84
2023/07/29 01:35:42;;;;;;;1.77;1.50;;;;;15.80;93727.00;;;;7396976;19;20543;-82
2023/07/29 01:38:36;;;;;;;2.60;1.35;;;;;15.80;93729.00;;;;7398045;19;20175;-83
2023/07/29 01:41:07;;;;;;;2.78;1.67;;;;;15.90;93719.00;;;;7397890;19;20171;-85
2023/07/29 01:43:43;;;;;;;2.47;1.50;;;;;15.80;93719.00;;;;7398227;19;20257;-82
2023/07/29 01:46:12;;;;;;;1.50;1.40;;;;;15.70;93726.00;;;;7399568;19;20152;-83
2023/07/29 01:48:49;;;;;;;2.40;1.30;;;;;15.70;93727.00;;;;7395814;19;20207;-82
2023/07/29 01:51:17;;;;;;;4.20;1.40;;;;;15.70;93733.00;;;;7398329;19;20164;-83
2023/07/29 01:53:51;;;;;;;3.22;1.40;;;;;15.60;93724.00;;;;7399222;19;20140;-82
2023/07/29 01:56:19;;;;;;;1.90;1.35;;;;;15.70;93731.00;;;;7397434;19;20604;-82
2023/07/29 01:58:53;;;;;;;2.45;1.67;;;;;15.70;93729.00;;;;7399888;19;20132;-82
2023/07/29 02:01:21;;;;;;;2.33;1.50;;;;;15.80;93720.00;;;;7398677;19;20619;-83
2023/07/29 02:04:09;;;;;;;1.67;1.27;;;;;15.80;93717.00;;;;7392507;19;20163;-82
2023/07/29 02:06:44;;;;;;;2.97;1.60;;;;;15.90;93725.00;;;;7398425;19;20647;-82
2023/07/29 02:09:19;;;;;;;2.05;1.58;;;;;16.00;93717.00;;;;7396882;19;20806;-79
2023/07/29 02:11:47;;;;;;;2.72;1.52;;;;;16.00;93719.00;;;;7397873;19;20469;-78
2023/07/29 02:14:21;;;;;;;2.40;1.67;;;;;16.00;93712.00;;;;7396175;19;20504;-78
2023/07/29 02:16:49;;;;;;;5.53;1.30;;;;;16.00;93717.00;;;;7395019;19;20640;-80
2023/07/29 02:19:23;;;;;;;1.45;1.35;;;;;16.10;93710.00;;;;7396260;19;20200;-79
2023/07/29 02:21:58;;;;;;;3.22;1.40;;;;;16.20;93715.00;;;;7396575;19;20663;-78
2023/07/29 02:24:32;;;;;;;3.45;1.55;;;;;16.20;93709.00;;;;7396881;19;20124;-80
2023/07/29 02:27:00;;;;;;;3.10;1.40;;;;;16.20;93713.00;;;;7396935;19;20140;-79
2023/07/29 02:29:34;;;;;;;2.28;1.45;;;;;16.20;93713.00;;;;7395338;19;20157;-78
2023/07/29 02:32:02;;;;;;;2.35;1.48;;;;;16.10;93716.00;;;;7395736;19;20133;-79
2023/07/29 02:34:30;;;;;;;1.90;1.55;;;;;16.20;93712.00;;;;7395519;19;20141;-78
2023/07/29 02:37:05;;;;;;;1.58;1.23;;;;;16.20;93714.00;;;;7396308;19;20603;-79
2023/07/29 02:39:39;;;;;;;5.63;1.60;;;;;16.20;93712.00;;;;7394329;19;20136;-79
2023/07/29 02:42:13;;;;;;;4.43;1.30;;;;;16.30;93696.00;;;;7393345;19;20149;-78
2023/07/29 02:44:41;;;;;;;2.38;1.33;;;;;16.10;93702.00;;;;7394895;19;20141;-79
2023/07/29 02:47:16;;;;;;;2.40;1.30;;;;;16.10;93694.00;;;;7395827;19;20132;-79
2023/07/29 02:49:50;;;;;;;2.95;1.27;;;;;16.00;93689.00;;;;7393622;19;20143;-79
2023/07/29 02:52:20;;;;;;;1.63;1.52;;;;;16.00;93692.00;;;;7393886;19;20982;-79
2023/07/29 02:54:54;;;;;;;1.25;1.15;;;;;16.00;93694.00;;;;7395645;19;20144;-79
2023/07/29 02:57:28;;;;;;;1.58;1.30;;;;;16.00;93693.00;;;;7393334;19;20215;-78
2023/07/29 03:00:04;;;;;;;1.52;1.35;;;;;16.10;93703.00;;;;7393648;19;20144;-79
2023/07/29 03:02:33;;;;;;;2.28;1.50;;;;;16.10;93701.00;;;;7393994;19;20168;-79
2023/07/29 03:05:08;;;;;;;4.82;1.40;;;;;16.20;93686.00;;;;7393780;19;20603;-79
2023/07/29 03:07:42;;;;;;;4.60;1.40;;;;;16.30;93683.00;;;;7393767;19;20706;-79
2023/07/29 03:10:11;;;;;;;1.40;1.30;;;;;16.20;93683.00;;;;7394679;19;20132;-79
2023/07/29 03:12:45;;;;;;;1.52;1.38;;;;;16.20;93682.00;;;;7395170;19;20627;-79
2023/07/29 03:15:13;;;;;;;3.03;1.30;;;;;16.20;93678.00;;;;7394052;19;20201;-78
2023/07/29 03:17:41;;;;;;;1.83;1.48;;;;;16.10;93660.00;;;;7393210;19;20538;-79
2023/07/29 03:20:26;;;;;;;1.67;1.40;;;;;16.10;93664.00;;;;7397605;19;20496;-84
2023/07/29 03:22:57;;;;;;;1.58;1.48;;;;;16.10;93668.00;;;;7399739;19;20133;-83
2023/07/29 03:25:32;;;;;;;4.53;1.48;;;;;16.10;93677.00;;;;7396715;19;20600;-83
2023/07/29 03:28:00;;;;;;;1.50;1.40;;;;;16.10;93681.00;;;;7396010;19;20596;-83
2023/07/29 03:30:35;;;;;;;3.08;1.30;;;;;16.10;93680.00;;;;7397375;19;20133;-82
2023/07/29 03:33:11;;;;;;;5.50;1.42;;;;;16.10;93681.00;;;;7391507;19;20572;-80
2023/07/29 03:35:45;;;;;;;4.72;1.70;;;;;16.00;93671.00;;;;7392674;19;20220;-79
2023/07/29 03:38:20;;;;;;;4.15;1.67;;;;;15.80;93672.00;;;;7391646;19;20224;-80
2023/07/29 03:41:02;;;;;;;2.58;1.35;;;;;15.70;93668.00;;;;7401305;19;20147;-80
2023/07/29 03:43:30;;;;;;;2.85;1.38;;;;;15.60;93668.00;;;;7401699;19;20457;-79
2023/07/29 03:46:07;;;;;;;1.55;1.30;;;;;15.60;93669.00;;;;7403861;19;20148;-78
2023/07/29 03:48:41;;;;;;;1.50;1.40;;;;;15.50;93660.00;;;;7402811;19;20153;-79
2023/07/29 03:51:15;;;;;;;1.45;1.35;;;;;15.50;93667.00;;;;7401094;19;20220;-78
2023/07/29 03:53:52;;;;;;;1.60;1.48;;;;;15.50;93672.00;;;;7402042;19;20141;-78
2023/07/29 03:56:19;;;;;;;3.38;1.70;;;;;15.50;93675.00;;;;7403553;19;20140;-77
2023/07/29 03:58:50;;;;;;;3.60;1.60;;;;;15.50;93671.00;;;;7399751;19;20196;-78
2023/07/29 04:01:26;;;;;;;1.77;1.58;;;;;15.50;93667.00;;;;7397674;19;20143;-80
2023/07/29 04:04:00;;;;;;;2.83;2.05;;;;;15.60;93669.00;;;;7397718;19;20586;-80
2023/07/29 04:06:37;;;;;;;1.83;1.50;;;;;15.60;93666.00;;;;7390989;19;20215;-79
2023/07/29 04:09:06;;;;;;;4.38;1.67;;;;;15.60;93675.00;;;;7387284;19;20213;-80
2023/07/29 04:11:43;;;;;;;4.38;1.63;;;;;15.70;93680.00;;;;7392216;19;20250;-83
2023/07/29 04:14:18;;;;;;;5.07;1.95;;;;;15.80;93685.00;;;;7391834;19;20584;-85
2023/07/29 04:16:53;;;;;;;4.57;1.85;;;;;15.80;93673.00;;;;7389496;19;20580;-81
2023/07/29 04:19:23;;;;;;;2.95;1.60;;;;;15.80;93693.00;;;;7391747;19;20147;-86
2023/07/29 04:22:01;;;;;;;3.33;2.03;;;;;16.00;93704.00;;;;7391675;19;20196;-85
2023/07/29 04:24:42;;;;;;;2.58;2.08;;;;;15.90;93680.00;;;;7394285;19;20169;-81
2023/07/29 04:27:19;;;;;;;3.35;1.90;;;;;16.00;93677.00;;;;7396382;19;20132;-80
2023/07/29 04:29:54;;;;;;;2.40;1.85;;;;;16.00;93679.00;;;;7391674;19;20215;-78
2023/07/29 04:32:30;;;;;;;3.17;1.90;;;;;16.00;93674.00;;;;7388698;19;20161;-80
2023/07/29 04:34:58;;;;;;;2.28;1.92;;;;;16.00;93673.00;;;;7389948;19;20157;-80
2023/07/29 04:37:33;;;;;;;4.03;2.00;;;;;16.00;93651.00;;;;7390149;19;20153;-76
2023/07/29 04:40:08;;;;;;;2.28;1.88;;;;;16.10;93664.00;;;;7387013;19;20218;-77
2023/07/29 04:42:42;;;;;;;4.00;1.90;;;;;16.10;93666.00;;;;7388942;19;20597;-77
2023/07/29 04:45:17;;;;;;;2.13;1.73;;;;;16.10;93677.00;;;;7387148;19;20144;-76
2023/07/29 04:47:47;;;;;;;2.38;1.80;;;;;16.10;93669.00;;;;7387553;19;20639;-76
2023/07/29 04:50:21;;;;;;;4.93;2.22;;;;;16.10;93667.00;;;;7389288;19;20161;-76
2023/07/29 04:52:56;;;;;;;3.78;2.00;;;;;16.10;93665.00;;;;7389120;19;21117;-77
2023/07/29 04:55:24;;;;;;;5.65;2.08;;;;;16.10;93666.00;;;;7386761;19;20157;-77
2023/07/29 04:57:59;;;;;;;3.53;1.85;;;;;16.20;93653.00;;;;7385716;19;20167;-77
2023/07/29 05:00:36;;;;;;;4.45;1.90;;;;;16.30;93652.00;;;;7385853;19;20596;-77
2023/07/29 05:03:16;;;;;;;2.75;2.00;;;;;16.30;93641.00;;;;7385269;19;20176;-77
2023/07/29 05:06:00;;;;;;;2.72;1.80;;;;;16.30;93651.00;;;;7386956;19;20140;-77
2023/07/29 05:08:35;;;;;;;2.92;2.00;;;;;16.30;93646.00;;;;7386315;19;20619;-77
2023/07/29 05:11:04;;;;;;;3.22;1.70;;;;;16.30;93646.00;;;;7387307;19;20141;-78
2023/07/29 05:13:39;;;;;;;2.90;1.70;;;;;16.20;93650.00;;;;7384824;19;20156;-78
2023/07/29 05:16:13;;;;;;;5.07;1.73;;;;;16.20;93638.00;;;;7386912;19;20128;-77
2023/07/29 05:18:48;;;;;;;2.65;1.92;;;;;16.30;93641.00;;;;7388685;19;20128;-78
2023/07/29 05:21:21;;;;;;;2.35;1.77;;;;;16.30;93649.00;;;;7384914;19;20189;-78
2023/07/29 05:23:56;;;;;;;3.20;2.03;;;;;16.30;93649.00;;;;7388335;19;20163;-78
2023/07/29 05:26:30;;;;;;;6.40;2.20;;;;;16.30;93645.00;;;;7387193;19;20166;-78
2023/07/29 05:29:03;;;;;;;1.65;1.38;;;;;16.40;93656.00;;;;7385834;19;20141;-78
2023/07/29 05:31:38;;;;;;;2.03;1.70;;;;;16.50;93666.00;;;;7385810;19;20485;-77
2023/07/29 05:34:12;;;;;;;2.08;1.65;;;;;16.60;93663.00;;;;7388323;19;20153;-78
2023/07/29 05:36:42;;;;;;;1.60;1.50;;;;;16.60;93650.00;;;;7386908;19;20144;-78
2023/07/29 05:39:17;;;;;;;1.95;1.75;;;;;16.60;93660.00;;;;7385796;19;20136;-79
2023/07/29 05:41:48;;;;;;;2.53;1.52;;;;;16.60;93651.00;;;;7385639;19;20467;-79
2023/07/29 05:44:22;;;;;;;1.63;1.50;;;;;16.60;93654.00;;;;7384330;19;20132;-78
2023/07/29 05:46:49;;;;;;;4.38;1.80;;;;;16.60;93650.00;;;;7384825;19;20604;-78
2023/07/29 05:49:23;;;;;;;2.15;1.50;;;;;16.70;93645.00;;;;7384827;19;20157;-78
2023/07/29 05:52:05;;;;;;;2.40;1.55;;;;;16.80;93643.00;;;;7383822;19;20615;-78
2023/07/29 05:54:39;;;;;;;3.85;1.67;;;;;16.80;93647.00;;;;7385520;19;20159;-78
2023/07/29 05:57:13;;;;;;;3.13;1.67;;;;;16.90;93657.00;;;;7384574;19;20588;-78
2023/07/29 05:59:43;;;;;;;1.85;1.48;;;;;16.90;93616.00;;;;7383475;19;20224;-78
2023/07/29 06:02:10;;;;;;;2.83;1.58;;;;;17.00;93649.00;;;;7381244;19;20184;-78
2023/07/29 06:04:51;;;;;;;3.25;1.88;;;;;17.10;93655.00;;;;7380054;19;20185;-77
2023/07/29 06:07:18;;;;;;;2.22;1.75;;;;;17.10;93644.00;;;;7382809;19;20167;-79
2023/07/29 06:09:53;;;;;;;2.28;1.52;;;;;17.10;93658.00;;;;7383996;19;20591;-77
2023/07/29 06:12:24;;;;;;;8.27;1.63;;;;;17.20;93659.00;;;;7384675;19;20536;-78
2023/07/29 06:14:58;;;;;;;2.17;1.77;;;;;17.30;93671.00;;;;7379487;19;20150;-78
2023/07/29 06:17:33;;;;;;;2.25;1.60;;;;;17.30;93683.00;;;;7384716;19;20180;-78
2023/07/29 06:20:02;;;;;;;1.35;1.25;;;;;17.30;93686.00;;;;7385249;19;23409;-77
2023/07/29 06:22:38;;;;;;;2.22;1.40;;;;;17.30;93689.00;;;;7383000;19;20132;-77
2023/07/29 06:25:12;;;;;;;1.70;1.55;;;;;17.30;93695.00;;;;7382131;19;20258;-78
2023/07/29 06:27:40;;;;;;;3.67;1.55;;;;;17.30;93691.00;;;;7385556;19;20246;-77
2023/07/29 06:30:23;;;;;;;2.20;1.80;;;;;17.30;93685.00;;;;7380882;19;20652;-77
2023/07/29 06:32:59;;;;;;;4.97;1.60;;;;;17.40;93682.00;;;;7380727;19;20907;-78
2023/07/29 06:35:32;;;;;;;1.80;1.70;;;;;17.40;93695.00;;;;7382787;19;20611;-77
2023/07/29 06:38:00;;;;;;;1.50;1.20;;;;;17.40;93694.00;;;;7382110;19;20159;-77
2023/07/29 06:40:34;;;;;;;2.25;1.60;;;;;17.30;93701.00;;;;7382134;19;20203;-78
2023/07/29 06:43:02;;;;;;;1.85;1.65;;;;;17.30;93714.00;;;;7382220;19;20149;-78
2023/07/29 06:45:37;;;;;;;12.10;1.60;;;;;17.30;93722.00;;;;7380367;19;20149;-77
2023/07/29 06:48:05;;;;;;;2.85;1.70;;;;;17.10;93710.00;;;;7382727;19;20180;-77
2023/07/29 06:50:39;;;;;;;1.75;1.40;;;;;17.10;93713.00;;;;7385045;19;20124;-78
2023/07/29 06:53:13;;;;;;;1.98;1.60;;;;;17.00;93715.00;;;;7385320;19;20600;-79
2023/07/29 06:55:41;;;;;;;1.42;1.33;;;;;17.00;93706.00;;;;7383588;19;20509;-79
2023/07/29 06:58:16;;;;;;;2.35;1.70;;;;;17.00;93698.00;;;;7380902;19;20163;-78
2023/07/29 07:00:46;;;;;;;3.17;1.75;;;;;17.10;93703.00;;;;7382752;19;20162;-79
2023/07/29 07:03:14;;;;;;;2.83;1.60;;;;;17.10;93707.00;;;;7382129;19;20172;-78
2023/07/29 07:05:54;;;;;;;1.90;1.70;;;;;17.30;93703.00;;;;7382013;19;20188;-78
2023/07/29 07:08:31;;;;;;;1.58;1.48;;;;;17.40;93699.00;;;;7382331;19;20148;-78
2023/07/29 07:11:06;;;;;;;2.30;1.70;;;;;17.70;93705.00;;;;7384661;19;20149;-79
2023/07/29 07:13:34;;;;;;;1.85;1.70;;;;;17.90;93702.00;;;;7382716;19;20491;-79
2023/07/29 07:16:08;;;;;;;1.70;1.40;;;;;17.90;93698.00;;;;7390804;19;20150;-79
2023/07/29 07:18:40;;;;;;;1.63;1.50;;;;;18.00;93714.00;;;;7386534;19;20569;-80
2023/07/29 07:21:14;;;;;;;1.60;1.33;;;;;17.70;93704.00;;;;7391786;19;20144;-79
2023/07/29 07:23:42;;;;;;;3.67;1.30;;;;;17.80;93698.00;;;;7389869;19;20173;-78
2023/07/29 07:26:17;;;;;;;1.67;1.50;;;;;17.90;93696.00;;;;7391786;19;20550;-79
2023/07/29 07:28:51;;;;;;;1.48;1.35;;;;;18.00;93701.00;;;;7390952;19;20576;-79
2023/07/29 07:31:32;;;;;;;1.75;1.40;;;;;18.00;93703.00;;;;7387629;19;20155;-79
2023/07/29 07:34:10;;;;;;;3.28;1.45;;;;;18.10;93698.00;;;;7391153;19;20144;-79
2023/07/29 07:36:37;;;;;;;1.25;1.15;;;;;18.00;93690.00;;;;7390702;19;20153;-79
2023/07/29 07:39:13;;;;;;;2.80;1.55;;;;;18.20;93680.00;;;;7390916;19;20132;-79
2023/07/29 07:41:41;;;;;;;1.50;1.40;;;;;18.40;93672.00;;;;7385620;19;20149;-79
2023/07/29 07:44:17;;;;;;;1.92;1.23;;;;;19.20;93665.00;;;;7388280;19;20179;-78
2023/07/29 07:46:45;;;;;;;2.15;1.30;;;;;19.60;93652.00;;;;7389059;19;20129;-78
2023/07/29 07:49:19;;;;;;;2.05;1.33;;;;;20.10;93672.00;;;;7389630;19;20128;-79
2023/07/29 07:51:47;;;;;;;1.70;1.38;;;;;19.60;93673.00;;;;7391492;19;20482;-79
2023/07/29 07:54:22;;;;;;;2.30;0.75;;;;;19.30;93681.00;;;;7390993;19;20132;-78
2023/07/29 07:56:50;;;;;;;1.58;1.10;;;;;19.10;93684.00;;;;7388767;19;20149;-78
2023/07/29 07:59:18;;;;;;;1.10;1.00;;;;;18.90;93702.00;;;;7390852;19;20597;-80
2023/07/29 08:01:52;;;;;;;1.10;1.00;;;;;19.00;93702.00;;;;7388701;19;20187;-80
2023/07/29 08:04:27;;;;;;;1.88;1.05;;;;;18.80;93716.00;;;;7390269;19;20200;-79
2023/07/29 08:07:07;;;;;;;0.73;0.73;;;;;18.70;93711.00;;;;7388941;19;20158;-79
2023/07/29 08:09:42;;;;;;;2.40;1.17;;;;;18.60;93714.00;;;;7390760;19;20150;-81
2023/07/29 08:12:17;;;;;;;1.17;1.08;;;;;18.50;93718.00;;;;7388766;19;20148;-81
2023/07/29 08:14:50;;;;;;;3.10;1.10;;;;;18.60;93711.00;;;;7387644;19;20154;-81
2023/07/29 08:17:18;;;;;;;4.35;1.10;;;;;18.60;93714.00;;;;7388263;19;20145;-78
2023/07/29 08:19:53;;;;;;;5.57;1.20;;;;;18.90;93718.00;;;;7389308;19;20445;-80
2023/07/29 08:22:27;;;;;;;1.20;1.08;;;;;18.80;93716.00;;;;7387495;19;20139;-78
2023/07/29 08:25:02;;;;;;;2.50;1.13;;;;;18.70;93716.00;;;;7387738;19;20173;-80
2023/07/29 08:27:30;;;;;;;1.80;1.00;;;;;19.00;93716.00;;;;7391124;19;20597;-80
2023/07/29 08:30:05;;;;;;;2.88;1.00;;;;;19.00;93720.00;;;;7390245;19;20136;-81
2023/07/29 08:32:33;;;;;;;1.50;1.40;;;;;19.10;93708.00;;;;7387506;19;20149;-79
2023/07/29 08:35:01;;;;;;;2.20;1.38;;;;;19.20;93704.00;;;;7388012;19;20628;-80
2023/07/29 08:37:35;;;;;;;1.38;1.25;;;;;19.20;93712.00;;;;7389578;19;20591;-79
2023/07/29 08:40:10;;;;;;;1.95;1.20;;;;;19.10;93714.00;;;;7388588;19;20255;-81
2023/07/29 08:42:47;;;;;;;1.20;1.10;;;;;19.10;93721.00;;;;7388634;19;20549;-78
2023/07/29 08:45:21;;;;;;;1.00;1.00;;;;;19.00;93715.00;;;;7388031;19;20204;-77
2023/07/29 08:47:54;;;;;;;1.63;1.20;;;;;18.80;93722.00;;;;7387675;19;20619;-78
2023/07/29 08:50:32;;;;;;;1.40;1.30;;;;;18.90;93719.00;;;;7389498;19;20133;-78
2023/07/29 08:53:07;;;;;;;1.02;0.98;;;;;19.40;93716.00;;;;7389269;19;20132;-79
2023/07/29 08:55:43;;;;;;;2.55;1.40;;;;;19.50;93696.00;;;;7388936;19;20621;-80
2023/07/29 08:58:11;;;;;;;2.10;1.40;;;;;20.10;93694.00;;;;7387662;19;20623;-77
2023/07/29 09:00:47;;;;;;;2.30;1.20;;;;;20.20;93687.00;;;;7386957;19;20600;-78
2023/07/29 09:03:29;;;;;;;1.98;1.10;;;;;20.50;93687.00;;;;7387791;19;20166;-79
2023/07/29 09:06:13;;;;;;;2.20;1.20;;;;;20.60;93686.00;;;;7384309;19;20133;-77
2023/07/29 09:08:42;;;;;;;1.67;1.30;;;;;21.00;93671.00;;;;7385804;19;20635;-78
2023/07/29 09:11:17;;;;;;;2.80;1.35;;;;;20.80;93691.00;;;;7389491;19;20125;-81
2023/07/29 09:13:53;;;;;;;3.50;1.50;;;;;20.50;93681.00;;;;7388922;19;20620;-78
2023/07/29 09:16:29;;;;;;;1.50;1.35;;;;;20.10;93686.00;;;;7388874;19;20152;-81
2023/07/29 09:19:04;;;;;;;2.83;1.30;;;;;19.80;93691.00;;;;7388672;19;20605;-79
2023/07/29 09:21:40;;;;;;;1.60;1.50;;;;;19.50;93698.00;;;;7386623;19;20155;-82
2023/07/29 09:24:18;;;;;;;1.60;1.50;;;;;19.30;93689.00;;;;7386220;19;20139;-76
2023/07/29 09:26:50;;;;;;;2.97;1.52;;;;;19.30;93690.00;;;;7385441;19;20584;-77
2023/07/29 09:29:28;;;;;;;1.55;1.45;;;;;19.80;93683.00;;;;7387060;19;20133;-80
2023/07/29 09:32:17;;;;;;;3.47;1.70;;;;;20.10;93668.00;;;;7386799;19;20174;-78
2023/07/29 09:34:52;;;;;;;1.90;1.45;;;;;21.20;93646.00;;;;7388306;19;20227;-82
2023/07/29 09:37:24;;;;;;;1.65;1.55;;;;;21.90;93676.00;;;;7384544;19;20149;-85
2023/07/29 09:39:59;;;;;;;1.75;1.40;;;;;21.50;93682.00;;;;7386260;19;20142;-78
2023/07/29 09:42:33;;;;;;;1.40;1.30;;;;;21.40;93679.00;;;;7388027;19;20230;-82
2023/07/29 09:45:08;;;;;;;1.67;1.35;;;;;21.50;93691.00;;;;7388450;19;20131;-78
2023/07/29 09:47:47;;;;;;;1.52;1.40;;;;;21.40;93689.00;;;;7386392;19;20136;-84
2023/07/29 09:50:15;;;;;;;2.15;1.27;;;;;21.10;93711.00;;;;7386484;19;20153;-77
2023/07/29 09:52:51;;;;;;;1.67;1.30;;;;;20.70;93699.00;;;;7381610;19;20140;-78
2023/07/29 09:55:21;;;;;;;1.40;1.30;;;;;20.70;93714.00;;;;7379845;19;20485;-76
2023/07/29 09:58:04;;;;;;;2.33;1.65;;;;;20.30;93719.00;;;;7378773;19;21605;-78
2023/07/29 10:00:39;;;;;;;1.52;1.42;;;;;20.30;93729.00;;;;7379906;19;20612;-79
2023/07/29 10:03:15;;;;;;;1.98;1.80;;;;;20.20;93734.00;;;;7378122;19;20168;-79
2023/07/29 10:05:56;;;;;;;2.90;1.40;;;;;20.10;93734.00;;;;7380362;19;20195;-81
2023/07/29 10:08:35;;;;;;;1.83;1.50;;;;;19.70;93753.00;;;;7381904;19;20136;-82
2023/07/29 10:11:04;;;;;;;1.90;1.70;;;;;19.70;93752.00;;;;7381537;19;20133;-82
2023/07/29 10:13:39;;;;;;;5.18;2.10;;;;;19.80;93746.00;;;;7381552;19;20132;-78
2023/07/29 10:16:08;;;;;;;2.05;1.67;;;;;19.60;93757.00;;;;7379775;19;20145;-79
2023/07/29 10:18:43;;;;;;;1.60;1.40;;;;;19.20;93779.00;;;;7381075;19;20136;-80
2023/07/29 10:21:18;;;;;;;2.10;1.67;;;;;18.90;93759.00;;;;7380315;19;20125;-76
2023/07/29 10:23:49;;;;;;;2.58;1.70;;;;;19.40;93734.00;;;;7377353;19;20165;-76
2023/07/29 10:26:25;;;;;;;2.47;1.73;;;;;20.80;93745.00;;;;7378130;19;20137;-79
2023/07/29 10:29:04;;;;;;;3.65;1.67;;;;;21.10;93725.00;;;;7380263;19;20125;-75
2023/07/29 10:31:33;;;;;;;1.67;1.58;;;;;21.90;93716.00;;;;7379182;19;20129;-75
2023/07/29 10:34:08;;;;;;;1.10;1.10;;;;;21.40;93726.00;;;;7378840;19;20136;-76
2023/07/29 10:36:38;;;;;;;2.33;1.60;;;;;21.10;93724.00;;;;7381276;19;20133;-79
2023/07/29 10:39:20;;;;;;;3.17;1.30;;;;;21.10;93718.00;;;;7377994;19;20129;-77
2023/07/29 10:42:06;;;;;;;1.70;1.23;;;;;21.30;93714.00;;;;7381350;19;20128;-77
2023/07/29 10:44:43;;;;;;;1.20;1.10;;;;;21.80;93717.00;;;;7379350;19;20136;-77
2023/07/29 10:47:29;;;;;;;2.08;1.50;;;;;21.50;93718.00;;;;7378578;19;20129;-76
2023/07/29 10:50:18;;;;;;;1.50;1.40;;;;;21.40;93711.00;;;;7382061;19;20513;-78
2023/07/29 10:52:51;;;;;;;3.67;1.30;;;;;21.80;93714.00;;;;7388371;19;20820;-78
2023/07/29 10:55:38;;;;;;;3.88;1.30;;;;;22.50;93705.00;;;;7387826;19;20159;-77
2023/07/29 10:58:15;;;;;;;1.63;1.20;;;;;23.00;93733.00;;;;7387410;19;20156;-77
2023/07/29 11:00:49;;;;;;;1.40;1.27;;;;;22.10;93722.00;;;;7388500;19;20148;-76
2023/07/29 11:03:17;;;;;;;1.48;1.23;;;;;22.50;93706.00;;;;7387249;19;20160;-76
2023/07/29 11:06:05;;;;;;;1.75;1.40;;;;;23.00;93729.00;;;;7382203;19;20192;-79
2023/07/29 11:08:38;;;;;;;1.45;1.30;;;;;23.50;93717.00;;;;7387081;19;20157;-77
2023/07/29 11:11:14;;;;;;;1.40;1.30;;;;;23.80;93714.00;;;;7383914;19;20143;-77
2023/07/29 11:13:49;;;;;;;1.65;1.20;;;;;23.30;93704.00;;;;7378199;19;20125;-78
2023/07/29 11:16:25;;;;;;;1.48;1.38;;;;;23.80;93709.00;;;;7383279;19;20144;-78
2023/07/29 11:18:53;;;;;;;1.50;1.00;;;;;23.50;93694.00;;;;7380633;19;20478;-77
2023/07/29 11:21:28;;;;;;;2.63;1.35;;;;;23.80;93704.00;;;;7383340;19;20155;-76
2023/07/29 11:23:57;;;;;;;1.48;1.38;;;;;23.50;93712.00;;;;7383541;19;20623;-78
2023/07/29 11:26:36;;;;;;;1.58;1.45;;;;;23.50;93733.00;;;;7389321;19;20700;-77
2023/07/29 11:29:05;;;;;;;1.60;1.50;;;;;22.50;93725.00;;;;7383680;19;20208;-81
2023/07/29 11:31:40;;;;;;;1.67;1.40;;;;;22.50;93742.00;;;;7381104;19;20634;-76
2023/07/29 11:34:32;;;;;;;1.95;1.35;;;;;22.80;93721.00;;;;7384271;19;20742;-76
2023/07/29 11:36:59;;;;;;;1.60;1.50;;;;;22.70;93716.00;;;;7383704;19;20148;-78
2023/07/29 11:39:44;;;;;;;2.35;1.52;;;;;23.40;93700.00;;;;7384411;19;20140;-77
2023/07/29 11:42:18;;;;;;;2.17;1.40;;;;;23.10;93726.00;;;;7379280;19;20952;-78
2023/07/29 11:44:45;;;;;;;3.10;1.60;;;;;23.00;93713.00;;;;7379190;19;20156;-75
2023/07/29 11:47:20;;;;;;;1.88;1.73;;;;;23.40;93703.00;;;;7379881;19;20128;-76
2023/07/29 11:50:00;;;;;;;1.52;1.42;;;;;24.30;93702.00;;;;7379903;19;20159;-77
2023/07/29 11:52:34;;;;;;;2.75;1.40;;;;;23.80;93706.00;;;;7380710;19;20166;-76
2023/07/29 11:55:04;;;;;;;1.60;1.50;;;;;24.10;93700.00;;;;7379207;19;20585;-79
2023/07/29 11:57:38;;;;;;;1.75;1.65;;;;;24.10;93692.00;;;;7377344;19;20621;-76
2023/07/29 12:00:14;;;;;;;3.40;1.60;;;;;24.70;93696.00;;;;7378799;19;20177;-76
2023/07/29 12:02:50;;;;;;;2.20;1.80;;;;;25.00;93698.00;;;;7385816;19;20181;-77
2023/07/29 12:05:31;;;;;;;1.98;1.50;;;;;24.30;93719.00;;;;7380031;19;20583;-77
2023/07/29 12:08:09;;;;;;;1.88;1.70;;;;;23.40;93715.00;;;;7386210;19;20141;-78
2023/07/29 12:10:38;;;;;;;1.90;1.52;;;;;24.40;93703.00;;;;7386868;19;20612;-79
2023/07/29 12:13:14;;;;;;;1.83;1.73;;;;;25.00;93714.00;;;;7383321;19;20520;-77
2023/07/29 12:15:48;;;;;;;1.70;1.60;;;;;24.60;93717.00;;;;7384579;19;20647;-76
2023/07/29 12:18:31;;;;;;;2.08;1.75;;;;;24.10;93707.00;;;;7380466;19;20141;-78
2023/07/29 12:21:05;;;;;;;1.77;1.48;;;;;23.90;93721.00;;;;7384812;19;20117;-77
2023/07/29 12:23:40;;;;;;;3.17;1.70;;;;;24.60;93698.00;;;;7386429;19;20207;-76
2023/07/29 12:26:09;;;;;;;2.15;1.70;;;;;25.40;93689.00;;;;7386143;19;20200;-77
2023/07/29 12:28:37;;;;;;;2.13;1.83;;;;;25.40;93685.00;;;;7384069;19;20133;-78
2023/07/29 12:31:11;;;;;;;2.25;1.60;;;;;25.00;93691.00;;;;7387480;19;20180;-79
2023/07/29 12:33:41;;;;;;;2.15;1.60;;;;;25.10;93714.00;;;;7387904;19;20121;-79
2023/07/29 12:36:17;;;;;;;1.60;1.50;;;;;25.10;93688.00;;;;7385756;19;20132;-76
2023/07/29 12:38:53;;;;;;;1.50;1.40;;;;;26.00;93702.00;;;;7388458;19;20464;-77
2023/07/29 12:41:23;;;;;;;1.65;1.55;;;;;25.90;93694.00;;;;7387446;19;20203;-80
2023/07/29 12:43:57;;;;;;;1.92;1.75;;;;;25.90;93716.00;;;;7387880;19;20208;-80
2023/07/29 12:46:29;;;;;;;2.05;1.50;;;;;24.90;93709.00;;;;7385846;19;20186;-77
2023/07/29 12:49:04;;;;;;;2.35;1.60;;;;;24.80;93722.00;;;;7386583;19;20124;-80
2023/07/29 12:51:32;;;;;;;2.30;1.88;;;;;24.00;93735.00;;;;7387905;19;20121;-76
2023/07/29 12:54:07;;;;;;;4.15;1.77;;;;;22.70;93744.00;;;;7385343;19;20133;-76